sensor_id;sensor_type;location;lat;lon;timestamp;P1;durP1;ratioP1;P2;durP2;ratioP2
51614;SDS011;37695;52.960;6.188;2022-12-16T00:01:35;20.52;;;16.33;;
51614;SDS011;37695;52.960;6.188;2022-12-16T00:04:01;23.05;;;16.58;;
51614;SDS011;37695;52.960;6.188;2022-12-16T00:06:28;23.65;;;17.42;;
51614;SDS011;37695;52.960;6.188;2022-12-16T00:08:55;25.25;;;16.92;;
51614;SDS011;37695;52.960;6.188;2022-12-16T00:11:22;24.10;;;16.80;;
51614;SDS011;37695;52.960;6.188;2022-12-16T00:13:48;22.20;;;16.35;;
51614;SDS011;37695;52.960;6.188;2022-12-16T00:16:15;21.75;;;16.40;;
51614;SDS011;37695;52.960;6.188;2022-12-16T00:18:41;21.02;;;15.95;;
51614;SDS011;37695;52.960;6.188;2022-12-16T00:21:07;22.92;;;16.42;;
51614;SDS011;37695;52.960;6.188;2022-12-16T00:23:34;20.48;;;15.77;;
51614;SDS011;37695;52.960;6.188;2022-12-16T00:26:00;20.65;;;15.38;;
51614;SDS011;37695;52.960;6.188;2022-12-16T00:28:27;19.98;;;14.57;;
51614;SDS011;37695;52.960;6.188;2022-12-16T00:30:53;19.73;;;14.90;;
51614;SDS011;37695;52.960;6.188;2022-12-16T00:33:20;19.38;;;14.75;;
51614;SDS011;37695;52.960;6.188;2022-12-16T00:35:48;19.88;;;14.75;;
51614;SDS011;37695;52.960;6.188;2022-12-16T00:38:14;19.95;;;14.60;;
51614;SDS011;37695;52.960;6.188;2022-12-16T00:40:40;20.25;;;14.40;;
51614;SDS011;37695;52.960;6.188;2022-12-16T00:43:05;19.23;;;14.52;;
51614;SDS011;37695;52.960;6.188;2022-12-16T00:45:31;21.13;;;14.45;;
51614;SDS011;37695;52.960;6.188;2022-12-16T00:47:56;20.30;;;13.90;;
51614;SDS011;37695;52.960;6.188;2022-12-16T00:50:23;18.40;;;13.98;;
51614;SDS011;37695;52.960;6.188;2022-12-16T00:52:49;19.10;;;13.70;;
51614;SDS011;37695;52.960;6.188;2022-12-16T00:55:14;20.17;;;14.13;;
51614;SDS011;37695;52.960;6.188;2022-12-16T00:57:40;19.60;;;14.07;;
51614;SDS011;37695;52.960;6.188;2022-12-16T01:00:06;21.42;;;13.95;;
51614;SDS011;37695;52.960;6.188;2022-12-16T01:02:37;19.33;;;13.52;;
51614;SDS011;37695;52.960;6.188;2022-12-16T01:05:07;18.70;;;13.75;;
51614;SDS011;37695;52.960;6.188;2022-12-16T01:07:33;18.35;;;13.68;;
51614;SDS011;37695;52.960;6.188;2022-12-16T01:09:59;17.98;;;12.52;;
51614;SDS011;37695;52.960;6.188;2022-12-16T01:12:25;15.88;;;12.02;;
51614;SDS011;37695;52.960;6.188;2022-12-16T01:14:51;17.08;;;12.40;;
51614;SDS011;37695;52.960;6.188;2022-12-16T01:17:16;19.65;;;11.85;;
51614;SDS011;37695;52.960;6.188;2022-12-16T01:19:42;14.82;;;11.75;;
51614;SDS011;37695;52.960;6.188;2022-12-16T01:22:07;16.13;;;12.15;;
51614;SDS011;37695;52.960;6.188;2022-12-16T01:24:33;15.88;;;12.05;;
51614;SDS011;37695;52.960;6.188;2022-12-16T01:26:59;15.32;;;11.95;;
51614;SDS011;37695;52.960;6.188;2022-12-16T01:29:24;15.95;;;11.57;;
51614;SDS011;37695;52.960;6.188;2022-12-16T01:31:50;16.45;;;12.00;;
51614;SDS011;37695;52.960;6.188;2022-12-16T01:34:15;18.02;;;11.23;;
51614;SDS011;37695;52.960;6.188;2022-12-16T01:36:41;15.93;;;10.90;;
51614;SDS011;37695;52.960;6.188;2022-12-16T01:39:10;17.23;;;11.18;;
51614;SDS011;37695;52.960;6.188;2022-12-16T01:41:36;14.95;;;10.80;;
51614;SDS011;37695;52.960;6.188;2022-12-16T01:44:21;16.13;;;11.25;;
51614;SDS011;37695;52.960;6.188;2022-12-16T01:46:50;17.25;;;11.68;;
51614;SDS011;37695;52.960;6.188;2022-12-16T01:49:29;14.98;;;10.73;;
51614;SDS011;37695;52.960;6.188;2022-12-16T01:52:02;17.67;;;10.70;;
51614;SDS011;37695;52.960;6.188;2022-12-16T01:54:33;14.52;;;10.35;;
51614;SDS011;37695;52.960;6.188;2022-12-16T01:57:07;13.10;;;9.52;;
51614;SDS011;37695;52.960;6.188;2022-12-16T01:59:37;14.60;;;9.82;;
51614;SDS011;37695;52.960;6.188;2022-12-16T02:02:05;15.23;;;9.52;;
51614;SDS011;37695;52.960;6.188;2022-12-16T02:04:32;12.88;;;9.27;;
51614;SDS011;37695;52.960;6.188;2022-12-16T02:06:57;11.65;;;8.68;;
51614;SDS011;37695;52.960;6.188;2022-12-16T02:09:24;14.07;;;8.38;;
51614;SDS011;37695;52.960;6.188;2022-12-16T02:12:06;12.30;;;8.63;;
51614;SDS011;37695;52.960;6.188;2022-12-16T02:17:46;12.52;;;9.07;;
51614;SDS011;37695;52.960;6.188;2022-12-16T02:25:57;12.63;;;8.60;;
51614;SDS011;37695;52.960;6.188;2022-12-16T02:29:06;11.07;;;7.78;;
51614;SDS011;37695;52.960;6.188;2022-12-16T02:37:17;10.10;;;7.10;;
51614;SDS011;37695;52.960;6.188;2022-12-16T02:39:48;10.45;;;7.18;;
51614;SDS011;37695;52.960;6.188;2022-12-16T02:42:30;9.55;;;6.85;;
51614;SDS011;37695;52.960;6.188;2022-12-16T02:45:04;9.07;;;6.28;;
51614;SDS011;37695;52.960;6.188;2022-12-16T02:47:36;11.00;;;6.65;;
51614;SDS011;37695;52.960;6.188;2022-12-16T02:50:04;10.27;;;6.20;;
51614;SDS011;37695;52.960;6.188;2022-12-16T02:52:39;10.30;;;6.82;;
51614;SDS011;37695;52.960;6.188;2022-12-16T02:55:05;9.38;;;6.13;;
51614;SDS011;37695;52.960;6.188;2022-12-16T03:00:14;9.43;;;5.45;;
51614;SDS011;37695;52.960;6.188;2022-12-16T03:02:46;11.88;;;6.13;;
51614;SDS011;37695;52.960;6.188;2022-12-16T03:07:46;8.40;;;5.53;;
51614;SDS011;37695;52.960;6.188;2022-12-16T03:10:16;8.82;;;5.13;;
51614;SDS011;37695;52.960;6.188;2022-12-16T03:12:44;8.65;;;5.45;;
51614;SDS011;37695;52.960;6.188;2022-12-16T03:15:10;7.80;;;5.32;;
51614;SDS011;37695;52.960;6.188;2022-12-16T03:17:39;10.77;;;5.78;;
51614;SDS011;37695;52.960;6.188;2022-12-16T03:20:14;8.70;;;5.40;;
51614;SDS011;37695;52.960;6.188;2022-12-16T03:22:43;7.80;;;5.43;;
51614;SDS011;37695;52.960;6.188;2022-12-16T03:25:12;7.75;;;4.72;;
51614;SDS011;37695;52.960;6.188;2022-12-16T03:30:24;8.13;;;5.05;;
51614;SDS011;37695;52.960;6.188;2022-12-16T03:32:57;7.95;;;4.55;;
51614;SDS011;37695;52.960;6.188;2022-12-16T03:35:38;9.55;;;5.32;;
51614;SDS011;37695;52.960;6.188;2022-12-16T03:38:09;8.35;;;5.07;;
51614;SDS011;37695;52.960;6.188;2022-12-16T03:40:37;7.97;;;4.65;;
51614;SDS011;37695;52.960;6.188;2022-12-16T03:43:05;7.45;;;5.00;;
51614;SDS011;37695;52.960;6.188;2022-12-16T03:45:35;8.45;;;4.50;;
51614;SDS011;37695;52.960;6.188;2022-12-16T03:48:02;9.07;;;4.72;;
51614;SDS011;37695;52.960;6.188;2022-12-16T03:50:31;8.32;;;4.78;;
51614;SDS011;37695;52.960;6.188;2022-12-16T03:52:57;10.07;;;4.95;;
51614;SDS011;37695;52.960;6.188;2022-12-16T03:55:23;11.65;;;4.60;;
51614;SDS011;37695;52.960;6.188;2022-12-16T03:57:49;7.47;;;4.65;;
51614;SDS011;37695;52.960;6.188;2022-12-16T04:00:15;8.30;;;4.75;;
51614;SDS011;37695;52.960;6.188;2022-12-16T04:02:41;6.57;;;4.60;;
51614;SDS011;37695;52.960;6.188;2022-12-16T04:05:07;8.93;;;4.80;;
51614;SDS011;37695;52.960;6.188;2022-12-16T04:07:33;9.57;;;5.03;;
51614;SDS011;37695;52.960;6.188;2022-12-16T04:09:59;10.88;;;5.22;;
51614;SDS011;37695;52.960;6.188;2022-12-16T04:12:24;8.68;;;5.07;;
51614;SDS011;37695;52.960;6.188;2022-12-16T04:15:08;7.05;;;4.50;;
51614;SDS011;37695;52.960;6.188;2022-12-16T04:18:04;7.47;;;4.38;;
51614;SDS011;37695;52.960;6.188;2022-12-16T04:20:51;7.57;;;5.00;;
51614;SDS011;37695;52.960;6.188;2022-12-16T04:23:42;10.52;;;5.32;;
51614;SDS011;37695;52.960;6.188;2022-12-16T04:26:31;8.52;;;4.70;;
51614;SDS011;37695;52.960;6.188;2022-12-16T04:29:16;7.85;;;4.97;;
51614;SDS011;37695;52.960;6.188;2022-12-16T04:31:42;7.53;;;5.03;;
51614;SDS011;37695;52.960;6.188;2022-12-16T04:34:07;9.07;;;4.85;;
51614;SDS011;37695;52.960;6.188;2022-12-16T04:36:54;10.13;;;4.93;;
51614;SDS011;37695;52.960;6.188;2022-12-16T04:39:42;10.32;;;5.05;;
51614;SDS011;37695;52.960;6.188;2022-12-16T04:42:28;8.10;;;4.78;;
51614;SDS011;37695;52.960;6.188;2022-12-16T04:45:12;8.82;;;4.88;;
51614;SDS011;37695;52.960;6.188;2022-12-16T04:47:57;7.95;;;4.70;;
51614;SDS011;37695;52.960;6.188;2022-12-16T04:50:41;8.55;;;4.70;;
51614;SDS011;37695;52.960;6.188;2022-12-16T04:53:25;9.07;;;4.88;;
51614;SDS011;37695;52.960;6.188;2022-12-16T04:56:10;8.27;;;4.60;;
51614;SDS011;37695;52.960;6.188;2022-12-16T04:58:54;7.72;;;5.03;;
51614;SDS011;37695;52.960;6.188;2022-12-16T05:01:38;6.68;;;4.35;;
51614;SDS011;37695;52.960;6.188;2022-12-16T05:04:22;9.05;;;4.68;;
51614;SDS011;37695;52.960;6.188;2022-12-16T05:07:06;7.63;;;5.13;;
51614;SDS011;37695;52.960;6.188;2022-12-16T05:10:04;8.77;;;4.55;;
51614;SDS011;37695;52.960;6.188;2022-12-16T05:12:52;9.07;;;5.25;;
51614;SDS011;37695;52.960;6.188;2022-12-16T05:15:36;9.63;;;4.75;;
51614;SDS011;37695;52.960;6.188;2022-12-16T05:18:21;7.43;;;4.80;;
51614;SDS011;37695;52.960;6.188;2022-12-16T05:21:05;7.45;;;4.80;;
51614;SDS011;37695;52.960;6.188;2022-12-16T05:23:49;8.68;;;4.70;;
51614;SDS011;37695;52.960;6.188;2022-12-16T05:26:33;7.43;;;4.63;;
51614;SDS011;37695;52.960;6.188;2022-12-16T05:29:17;8.77;;;4.63;;
51614;SDS011;37695;52.960;6.188;2022-12-16T05:32:01;8.73;;;4.88;;
51614;SDS011;37695;52.960;6.188;2022-12-16T05:34:45;10.57;;;5.00;;
51614;SDS011;37695;52.960;6.188;2022-12-16T05:37:30;10.68;;;4.97;;
51614;SDS011;37695;52.960;6.188;2022-12-16T05:40:14;8.80;;;4.78;;
51614;SDS011;37695;52.960;6.188;2022-12-16T05:42:58;9.57;;;5.17;;
51614;SDS011;37695;52.960;6.188;2022-12-16T05:45:42;8.20;;;5.28;;
51614;SDS011;37695;52.960;6.188;2022-12-16T05:48:26;8.73;;;5.33;;
51614;SDS011;37695;52.960;6.188;2022-12-16T05:51:10;7.82;;;5.03;;
51614;SDS011;37695;52.960;6.188;2022-12-16T05:53:54;9.13;;;5.20;;
51614;SDS011;37695;52.960;6.188;2022-12-16T05:56:39;8.70;;;5.27;;
51614;SDS011;37695;52.960;6.188;2022-12-16T05:59:23;9.20;;;5.93;;
51614;SDS011;37695;52.960;6.188;2022-12-16T06:02:07;9.70;;;6.28;;
51614;SDS011;37695;52.960;6.188;2022-12-16T06:04:51;10.85;;;6.55;;
51614;SDS011;37695;52.960;6.188;2022-12-16T06:07:35;9.47;;;6.37;;
51614;SDS011;37695;52.960;6.188;2022-12-16T06:10:19;11.05;;;7.18;;
51614;SDS011;37695;52.960;6.188;2022-12-16T06:13:03;12.53;;;8.77;;
51614;SDS011;37695;52.960;6.188;2022-12-16T06:15:48;14.13;;;10.07;;
51614;SDS011;37695;52.960;6.188;2022-12-16T06:18:32;16.13;;;11.00;;
51614;SDS011;37695;52.960;6.188;2022-12-16T06:21:36;15.20;;;11.60;;
51614;SDS011;37695;52.960;6.188;2022-12-16T06:24:20;17.92;;;12.20;;
51614;SDS011;37695;52.960;6.188;2022-12-16T06:27:04;17.92;;;13.23;;
51614;SDS011;37695;52.960;6.188;2022-12-16T06:29:48;15.95;;;12.88;;
51614;SDS011;37695;52.960;6.188;2022-12-16T06:32:32;16.13;;;12.93;;
51614;SDS011;37695;52.960;6.188;2022-12-16T06:35:16;19.33;;;14.15;;
51614;SDS011;37695;52.960;6.188;2022-12-16T06:38:00;20.15;;;14.32;;
51614;SDS011;37695;52.960;6.188;2022-12-16T06:40:44;19.37;;;13.50;;
51614;SDS011;37695;52.960;6.188;2022-12-16T06:43:28;18.65;;;14.30;;
51614;SDS011;37695;52.960;6.188;2022-12-16T06:46:12;21.57;;;15.43;;
51614;SDS011;37695;52.960;6.188;2022-12-16T06:48:57;28.23;;;15.73;;
51614;SDS011;37695;52.960;6.188;2022-12-16T06:51:41;21.33;;;14.73;;
51614;SDS011;37695;52.960;6.188;2022-12-16T06:54:25;20.77;;;15.03;;
51614;SDS011;37695;52.960;6.188;2022-12-16T06:57:09;20.52;;;14.57;;
51614;SDS011;37695;52.960;6.188;2022-12-16T06:59:53;19.70;;;15.02;;
51614;SDS011;37695;52.960;6.188;2022-12-16T07:02:39;20.35;;;14.15;;
51614;SDS011;37695;52.960;6.188;2022-12-16T07:05:23;20.17;;;15.43;;
51614;SDS011;37695;52.960;6.188;2022-12-16T07:08:07;20.17;;;15.23;;
51614;SDS011;37695;52.960;6.188;2022-12-16T07:10:51;19.17;;;15.57;;
51614;SDS011;37695;52.960;6.188;2022-12-16T07:13:36;19.98;;;14.85;;
51614;SDS011;37695;52.960;6.188;2022-12-16T07:16:20;18.60;;;14.98;;
51614;SDS011;37695;52.960;6.188;2022-12-16T07:19:04;21.38;;;15.85;;
51614;SDS011;37695;52.960;6.188;2022-12-16T07:21:48;21.30;;;15.48;;
51614;SDS011;37695;52.960;6.188;2022-12-16T07:24:32;20.30;;;15.95;;
51614;SDS011;37695;52.960;6.188;2022-12-16T07:27:16;21.00;;;15.27;;
51614;SDS011;37695;52.960;6.188;2022-12-16T07:30:01;25.55;;;18.65;;
51614;SDS011;37695;52.960;6.188;2022-12-16T07:33:05;23.73;;;15.95;;
51614;SDS011;37695;52.960;6.188;2022-12-16T07:35:49;20.15;;;15.63;;
51614;SDS011;37695;52.960;6.188;2022-12-16T07:38:33;19.10;;;14.98;;
51614;SDS011;37695;52.960;6.188;2022-12-16T07:41:17;19.63;;;14.90;;
51614;SDS011;37695;52.960;6.188;2022-12-16T07:44:01;22.07;;;15.47;;
51614;SDS011;37695;52.960;6.188;2022-12-16T07:46:46;22.08;;;16.48;;
51614;SDS011;37695;52.960;6.188;2022-12-16T07:49:30;23.05;;;16.77;;
51614;SDS011;37695;52.960;6.188;2022-12-16T07:52:14;21.63;;;15.68;;
51614;SDS011;37695;52.960;6.188;2022-12-16T07:54:58;20.17;;;15.35;;
51614;SDS011;37695;52.960;6.188;2022-12-16T07:57:47;24.67;;;16.55;;
51614;SDS011;37695;52.960;6.188;2022-12-16T08:00:32;22.38;;;16.92;;
51614;SDS011;37695;52.960;6.188;2022-12-16T08:03:16;23.83;;;16.73;;
51614;SDS011;37695;52.960;6.188;2022-12-16T08:06:00;25.95;;;17.83;;
51614;SDS011;37695;52.960;6.188;2022-12-16T08:08:45;23.77;;;16.87;;
51614;SDS011;37695;52.960;6.188;2022-12-16T08:11:29;22.38;;;17.25;;
51614;SDS011;37695;52.960;6.188;2022-12-16T08:14:13;23.30;;;17.20;;
51614;SDS011;37695;52.960;6.188;2022-12-16T08:16:57;23.63;;;17.55;;
51614;SDS011;37695;52.960;6.188;2022-12-16T08:19:41;21.80;;;16.77;;
51614;SDS011;37695;52.960;6.188;2022-12-16T08:22:25;25.30;;;18.58;;
51614;SDS011;37695;52.960;6.188;2022-12-16T08:25:09;23.13;;;16.77;;
51614;SDS011;37695;52.960;6.188;2022-12-16T08:27:54;22.63;;;16.80;;
51614;SDS011;37695;52.960;6.188;2022-12-16T08:30:39;22.85;;;17.00;;
51614;SDS011;37695;52.960;6.188;2022-12-16T08:33:24;21.50;;;16.45;;
51614;SDS011;37695;52.960;6.188;2022-12-16T08:36:08;22.23;;;16.63;;
51614;SDS011;37695;52.960;6.188;2022-12-16T08:38:52;22.25;;;17.33;;
51614;SDS011;37695;52.960;6.188;2022-12-16T08:41:37;24.67;;;17.80;;
51614;SDS011;37695;52.960;6.188;2022-12-16T08:44:21;21.63;;;16.38;;
51614;SDS011;37695;52.960;6.188;2022-12-16T08:47:05;26.02;;;17.77;;
51614;SDS011;37695;52.960;6.188;2022-12-16T08:49:49;21.35;;;17.08;;
51614;SDS011;37695;52.960;6.188;2022-12-16T08:52:33;22.95;;;18.02;;
51614;SDS011;37695;52.960;6.188;2022-12-16T08:55:17;25.25;;;17.48;;
51614;SDS011;37695;52.960;6.188;2022-12-16T08:58:02;23.60;;;17.47;;
51614;SDS011;37695;52.960;6.188;2022-12-16T09:00:46;21.73;;;17.27;;
51614;SDS011;37695;52.960;6.188;2022-12-16T09:03:30;25.17;;;18.27;;
51614;SDS011;37695;52.960;6.188;2022-12-16T09:06:14;23.13;;;17.35;;
51614;SDS011;37695;52.960;6.188;2022-12-16T09:08:58;23.13;;;16.73;;
51614;SDS011;37695;52.960;6.188;2022-12-16T09:11:43;22.47;;;17.27;;
51614;SDS011;37695;52.960;6.188;2022-12-16T09:14:27;25.52;;;18.00;;
51614;SDS011;37695;52.960;6.188;2022-12-16T09:17:11;24.92;;;18.38;;
51614;SDS011;37695;52.960;6.188;2022-12-16T09:19:55;24.67;;;18.17;;
51614;SDS011;37695;52.960;6.188;2022-12-16T09:22:39;25.07;;;17.97;;
51614;SDS011;37695;52.960;6.188;2022-12-16T09:25:37;25.52;;;18.77;;
51614;SDS011;37695;52.960;6.188;2022-12-16T09:28:28;26.40;;;18.85;;
51614;SDS011;37695;52.960;6.188;2022-12-16T09:31:13;26.73;;;18.47;;
51614;SDS011;37695;52.960;6.188;2022-12-16T09:33:57;25.40;;;18.83;;
51614;SDS011;37695;52.960;6.188;2022-12-16T09:36:41;29.43;;;19.90;;
51614;SDS011;37695;52.960;6.188;2022-12-16T09:39:26;25.23;;;18.50;;
51614;SDS011;37695;52.960;6.188;2022-12-16T09:45:32;25.15;;;17.95;;
51614;SDS011;37695;52.960;6.188;2022-12-16T09:51:31;25.92;;;18.75;;
51614;SDS011;37695;52.960;6.188;2022-12-16T09:54:18;26.65;;;19.13;;
51614;SDS011;37695;52.960;6.188;2022-12-16T09:57:04;24.80;;;18.73;;
51614;SDS011;37695;52.960;6.188;2022-12-16T09:59:54;26.83;;;18.77;;
51614;SDS011;37695;52.960;6.188;2022-12-16T10:02:48;25.45;;;19.08;;
51614;SDS011;37695;52.960;6.188;2022-12-16T10:05:43;27.25;;;18.63;;
51614;SDS011;37695;52.960;6.188;2022-12-16T10:08:46;30.33;;;19.38;;
51614;SDS011;37695;52.960;6.188;2022-12-16T10:14:32;26.83;;;18.75;;
51614;SDS011;37695;52.960;6.188;2022-12-16T10:17:26;27.38;;;19.40;;
51614;SDS011;37695;52.960;6.188;2022-12-16T10:20:14;26.55;;;18.65;;
51614;SDS011;37695;52.960;6.188;2022-12-16T10:28:59;28.48;;;20.77;;
51614;SDS011;37695;52.960;6.188;2022-12-16T10:31:55;27.80;;;19.17;;
51614;SDS011;37695;52.960;6.188;2022-12-16T10:34:39;27.45;;;19.38;;
51614;SDS011;37695;52.960;6.188;2022-12-16T10:37:31;24.13;;;17.77;;
51614;SDS011;37695;52.960;6.188;2022-12-16T10:40:18;25.15;;;19.50;;
51614;SDS011;37695;52.960;6.188;2022-12-16T10:43:15;28.63;;;19.77;;
51614;SDS011;37695;52.960;6.188;2022-12-16T10:46:10;27.70;;;19.02;;
51614;SDS011;37695;52.960;6.188;2022-12-16T10:48:58;27.63;;;19.27;;
51614;SDS011;37695;52.960;6.188;2022-12-16T10:51:42;28.67;;;19.70;;
51614;SDS011;37695;52.960;6.188;2022-12-16T10:54:40;28.67;;;21.17;;
51614;SDS011;37695;52.960;6.188;2022-12-16T11:00:56;28.98;;;19.98;;
51614;SDS011;37695;52.960;6.188;2022-12-16T11:03:40;32.40;;;21.33;;
51614;SDS011;37695;52.960;6.188;2022-12-16T11:06:35;31.73;;;20.60;;
51614;SDS011;37695;52.960;6.188;2022-12-16T11:09:24;33.10;;;22.80;;
51614;SDS011;37695;52.960;6.188;2022-12-16T11:18:02;35.42;;;22.92;;
51614;SDS011;37695;52.960;6.188;2022-12-16T11:27:01;33.15;;;21.48;;
51614;SDS011;37695;52.960;6.188;2022-12-16T11:33:13;38.00;;;23.75;;
51614;SDS011;37695;52.960;6.188;2022-12-16T11:36:04;33.60;;;21.80;;
51614;SDS011;37695;52.960;6.188;2022-12-16T11:38:56;36.97;;;22.52;;
51614;SDS011;37695;52.960;6.188;2022-12-16T11:41:41;36.20;;;22.92;;
51614;SDS011;37695;52.960;6.188;2022-12-16T11:44:48;38.25;;;23.90;;
51614;SDS011;37695;52.960;6.188;2022-12-16T11:47:39;42.85;;;24.73;;
51614;SDS011;37695;52.960;6.188;2022-12-16T11:50:28;37.05;;;24.45;;
51614;SDS011;37695;52.960;6.188;2022-12-16T11:56:31;41.92;;;23.85;;
51614;SDS011;37695;52.960;6.188;2022-12-16T12:02:03;36.13;;;23.63;;
51614;SDS011;37695;52.960;6.188;2022-12-16T12:04:57;38.42;;;23.77;;
51614;SDS011;37695;52.960;6.188;2022-12-16T12:13:49;39.70;;;23.40;;
51614;SDS011;37695;52.960;6.188;2022-12-16T12:19:47;39.60;;;23.20;;
51614;SDS011;37695;52.960;6.188;2022-12-16T12:22:38;37.10;;;23.08;;
51614;SDS011;37695;52.960;6.188;2022-12-16T12:25:33;37.92;;;23.63;;
51614;SDS011;37695;52.960;6.188;2022-12-16T12:28:39;37.47;;;23.60;;
51614;SDS011;37695;52.960;6.188;2022-12-16T12:31:43;35.92;;;22.13;;
51614;SDS011;37695;52.960;6.188;2022-12-16T12:37:48;40.95;;;23.85;;
51614;SDS011;37695;52.960;6.188;2022-12-16T12:47:09;37.58;;;22.10;;
51614;SDS011;37695;52.960;6.188;2022-12-16T12:49:56;38.35;;;23.25;;
51614;SDS011;37695;52.960;6.188;2022-12-16T12:58:58;43.97;;;25.67;;
51614;SDS011;37695;52.960;6.188;2022-12-16T13:01:47;40.08;;;23.75;;
51614;SDS011;37695;52.960;6.188;2022-12-16T13:04:33;39.72;;;24.80;;
51614;SDS011;37695;52.960;6.188;2022-12-16T13:07:17;42.17;;;23.70;;
51614;SDS011;37695;52.960;6.188;2022-12-16T13:16:12;41.70;;;25.30;;
51614;SDS011;37695;52.960;6.188;2022-12-16T13:22:26;41.28;;;23.73;;
51614;SDS011;37695;52.960;6.188;2022-12-16T13:25:30;41.78;;;23.98;;
51614;SDS011;37695;52.960;6.188;2022-12-16T13:28:28;42.58;;;24.13;;
51614;SDS011;37695;52.960;6.188;2022-12-16T13:31:15;43.55;;;25.25;;
51614;SDS011;37695;52.960;6.188;2022-12-16T13:34:20;39.55;;;24.58;;
51614;SDS011;37695;52.960;6.188;2022-12-16T13:37:17;43.17;;;24.75;;
51614;SDS011;37695;52.960;6.188;2022-12-16T13:40:16;41.17;;;23.55;;
51614;SDS011;37695;52.960;6.188;2022-12-16T13:43:04;39.63;;;23.60;;
51614;SDS011;37695;52.960;6.188;2022-12-16T13:48:48;38.45;;;22.90;;
51614;SDS011;37695;52.960;6.188;2022-12-16T13:54:36;36.00;;;21.15;;
51614;SDS011;37695;52.960;6.188;2022-12-16T13:57:24;37.83;;;23.63;;
51614;SDS011;37695;52.960;6.188;2022-12-16T14:00:20;41.85;;;23.25;;
51614;SDS011;37695;52.960;6.188;2022-12-16T14:03:10;35.72;;;22.83;;
51614;SDS011;37695;52.960;6.188;2022-12-16T14:06:12;36.78;;;22.38;;
51614;SDS011;37695;52.960;6.188;2022-12-16T14:09:00;39.72;;;23.15;;
51614;SDS011;37695;52.960;6.188;2022-12-16T14:12:00;34.95;;;21.25;;
51614;SDS011;37695;52.960;6.188;2022-12-16T14:14:58;44.55;;;23.75;;
51614;SDS011;37695;52.960;6.188;2022-12-16T14:18:32;40.13;;;23.30;;
51614;SDS011;37695;52.960;6.188;2022-12-16T14:21:32;36.90;;;22.55;;
51614;SDS011;37695;52.960;6.188;2022-12-16T14:24:25;38.45;;;22.15;;
51614;SDS011;37695;52.960;6.188;2022-12-16T14:27:11;39.15;;;22.13;;
51614;SDS011;37695;52.960;6.188;2022-12-16T14:29:57;36.97;;;22.35;;
51614;SDS011;37695;52.960;6.188;2022-12-16T14:32:41;34.45;;;21.55;;
51614;SDS011;37695;52.960;6.188;2022-12-16T14:35:26;41.20;;;23.17;;
51614;SDS011;37695;52.960;6.188;2022-12-16T14:38:19;36.47;;;22.58;;
51614;SDS011;37695;52.960;6.188;2022-12-16T14:41:28;36.97;;;21.75;;
51614;SDS011;37695;52.960;6.188;2022-12-16T14:44:21;34.70;;;20.83;;
51614;SDS011;37695;52.960;6.188;2022-12-16T14:47:25;33.15;;;20.60;;
51614;SDS011;37695;52.960;6.188;2022-12-16T14:50:19;36.55;;;20.95;;
51614;SDS011;37695;52.960;6.188;2022-12-16T14:53:33;35.25;;;20.48;;
51614;SDS011;37695;52.960;6.188;2022-12-16T14:56:18;35.30;;;20.88;;
51614;SDS011;37695;52.960;6.188;2022-12-16T14:59:14;37.30;;;20.45;;
51614;SDS011;37695;52.960;6.188;2022-12-16T15:02:23;32.05;;;19.48;;
51614;SDS011;37695;52.960;6.188;2022-12-16T15:05:12;37.03;;;21.20;;
51614;SDS011;37695;52.960;6.188;2022-12-16T15:07:57;38.25;;;22.25;;
51614;SDS011;37695;52.960;6.188;2022-12-16T15:10:42;45.83;;;24.42;;
51614;SDS011;37695;52.960;6.188;2022-12-16T15:13:27;35.28;;;21.10;;
51614;SDS011;37695;52.960;6.188;2022-12-16T15:16:14;38.38;;;22.02;;
51614;SDS011;37695;52.960;6.188;2022-12-16T15:19:01;39.67;;;22.25;;
51614;SDS011;37695;52.960;6.188;2022-12-16T15:21:47;40.65;;;23.98;;
51614;SDS011;37695;52.960;6.188;2022-12-16T15:24:33;40.97;;;22.83;;
51614;SDS011;37695;52.960;6.188;2022-12-16T15:27:22;41.80;;;23.17;;
51614;SDS011;37695;52.960;6.188;2022-12-16T15:33:32;40.78;;;23.20;;
51614;SDS011;37695;52.960;6.188;2022-12-16T15:36:21;38.88;;;23.20;;
51614;SDS011;37695;52.960;6.188;2022-12-16T15:39:20;44.08;;;23.50;;
51614;SDS011;37695;52.960;6.188;2022-12-16T15:42:15;43.20;;;24.33;;
51614;SDS011;37695;52.960;6.188;2022-12-16T15:45:04;44.50;;;24.52;;
51614;SDS011;37695;52.960;6.188;2022-12-16T15:47:58;43.33;;;23.08;;
51614;SDS011;37695;52.960;6.188;2022-12-16T15:51:00;47.42;;;25.17;;
51614;SDS011;37695;52.960;6.188;2022-12-16T15:53:44;41.45;;;22.80;;
51614;SDS011;37695;52.960;6.188;2022-12-16T15:56:33;42.20;;;23.30;;
51614;SDS011;37695;52.960;6.188;2022-12-16T15:59:27;40.50;;;22.52;;
51614;SDS011;37695;52.960;6.188;2022-12-16T16:02:15;44.08;;;25.17;;
51614;SDS011;37695;52.960;6.188;2022-12-16T16:05:06;46.70;;;25.23;;
51614;SDS011;37695;52.960;6.188;2022-12-16T16:07:54;46.55;;;25.60;;
51614;SDS011;37695;52.960;6.188;2022-12-16T16:10:40;45.93;;;23.47;;
51614;SDS011;37695;52.960;6.188;2022-12-16T16:13:25;39.65;;;23.52;;
51614;SDS011;37695;52.960;6.188;2022-12-16T16:16:09;39.83;;;21.87;;
51614;SDS011;37695;52.960;6.188;2022-12-16T16:18:55;40.25;;;20.92;;
51614;SDS011;37695;52.960;6.188;2022-12-16T16:21:39;35.33;;;20.38;;
51614;SDS011;37695;52.960;6.188;2022-12-16T16:24:23;39.22;;;22.38;;
51614;SDS011;37695;52.960;6.188;2022-12-16T16:27:08;40.88;;;22.60;;
51614;SDS011;37695;52.960;6.188;2022-12-16T16:29:55;40.33;;;24.20;;
51614;SDS011;37695;52.960;6.188;2022-12-16T16:32:40;39.85;;;21.65;;
51614;SDS011;37695;52.960;6.188;2022-12-16T16:35:24;44.23;;;23.83;;
51614;SDS011;37695;52.960;6.188;2022-12-16T16:38:09;41.78;;;21.50;;
51614;SDS011;37695;52.960;6.188;2022-12-16T16:40:54;40.58;;;22.70;;
51614;SDS011;37695;52.960;6.188;2022-12-16T16:43:38;35.95;;;21.33;;
51614;SDS011;37695;52.960;6.188;2022-12-16T16:46:27;40.50;;;23.50;;
51614;SDS011;37695;52.960;6.188;2022-12-16T16:52:18;41.28;;;22.83;;
51614;SDS011;37695;52.960;6.188;2022-12-16T16:55:05;36.65;;;21.60;;
51614;SDS011;37695;52.960;6.188;2022-12-16T16:57:50;40.65;;;22.02;;
51614;SDS011;37695;52.960;6.188;2022-12-16T17:00:34;39.75;;;22.02;;
51614;SDS011;37695;52.960;6.188;2022-12-16T17:03:19;38.08;;;20.33;;
51614;SDS011;37695;52.960;6.188;2022-12-16T17:06:03;37.27;;;20.60;;
51614;SDS011;37695;52.960;6.188;2022-12-16T17:08:47;38.38;;;20.85;;
51614;SDS011;37695;52.960;6.188;2022-12-16T17:11:31;40.97;;;23.77;;
51614;SDS011;37695;52.960;6.188;2022-12-16T17:14:17;37.42;;;21.80;;
51614;SDS011;37695;52.960;6.188;2022-12-16T17:17:03;39.17;;;22.45;;
51614;SDS011;37695;52.960;6.188;2022-12-16T17:22:32;37.67;;;21.65;;
51614;SDS011;37695;52.960;6.188;2022-12-16T17:25:16;36.27;;;20.97;;
51614;SDS011;37695;52.960;6.188;2022-12-16T17:28:02;34.38;;;20.98;;
51614;SDS011;37695;52.960;6.188;2022-12-16T17:30:47;41.50;;;23.23;;
51614;SDS011;37695;52.960;6.188;2022-12-16T17:33:31;36.55;;;21.27;;
51614;SDS011;37695;52.960;6.188;2022-12-16T17:36:16;39.08;;;20.80;;
51614;SDS011;37695;52.960;6.188;2022-12-16T17:39:01;35.33;;;21.58;;
51614;SDS011;37695;52.960;6.188;2022-12-16T17:41:46;36.10;;;21.05;;
51614;SDS011;37695;52.960;6.188;2022-12-16T17:44:30;36.47;;;21.50;;
51614;SDS011;37695;52.960;6.188;2022-12-16T17:47:15;38.13;;;22.58;;
51614;SDS011;37695;52.960;6.188;2022-12-16T17:49:59;37.92;;;21.80;;